Time;durP1;ratioP1;P1;durP2;ratioP2;P2;SDS_P1;SDS_P2;PMS_P1;PMS_P2;Temp;Humidity;BMP_temperature;BMP_pressure;BME280_temperature;BME280_humidity;BME280_pressure;Samples;Min_cycle;Max_cycle;Signal;HPM_P1;HPM_P2
2024/02/06 00:00:21;;;;;;;11.38;6.50;;;;;;;7.83;100.00;100453.91;4856388;29;20136;-82
2024/02/06 00:02:49;;;;;;;9.52;5.85;;;;;;;7.86;100.00;100430.47;4871759;29;20049;-79
2024/02/06 00:05:16;;;;;;;7.50;5.47;;;;;;;7.93;100.00;100446.97;4860930;29;20052;-79
2024/02/06 00:07:42;;;;;;;10.32;5.32;;;;;;;7.96;100.00;100431.31;4851906;29;20938;-81
2024/02/06 00:10:11;;;;;;;8.48;6.15;;;;;;;8.03;100.00;100427.81;4862748;29;20128;-79
2024/02/06 00:12:39;;;;;;;12.65;5.13;;;;;;;8.07;100.00;100429.56;4868572;29;20057;-82
2024/02/06 00:15:06;;;;;;;7.68;5.28;;;;;;;8.13;100.00;100419.97;4865329;29;20073;-81
2024/02/06 00:17:33;;;;;;;11.88;5.78;;;;;;;8.21;100.00;100424.31;4860544;29;20774;-81
2024/02/06 00:20:03;;;;;;;8.50;5.32;;;;;;;8.25;100.00;100420.81;4889587;29;20056;-82
2024/02/06 00:22:29;;;;;;;6.90;4.65;;;;;;;8.28;100.00;100419.94;4867426;29;20390;-81
2024/02/06 00:24:56;;;;;;;7.43;4.80;;;;;;;8.27;100.00;100424.25;4873583;29;20033;-80
2024/02/06 00:27:23;;;;;;;9.00;4.10;;;;;;;8.24;100.00;100421.69;4865767;29;20109;-80
2024/02/06 00:29:52;;;;;;;9.98;5.43;;;;;;;8.24;100.00;100415.63;4873253;29;20049;-80
2024/02/06 00:32:19;;;;;;;9.57;5.78;;;;;;;8.17;100.00;100422.56;4867378;29;20128;-81
2024/02/06 00:34:45;;;;;;;7.05;4.53;;;;;;;8.15;100.00;100424.31;4870356;29;20045;-81
2024/02/06 00:37:14;;;;;;;7.38;4.85;;;;;;;8.15;100.00;100415.63;4858781;29;20120;-84
2024/02/06 00:39:41;;;;;;;6.72;5.22;;;;;;;8.11;100.00;100420.84;4857872;29;20494;-82
2024/02/06 00:42:07;;;;;;;5.95;4.50;;;;;;;8.00;100.00;100413.94;4854356;29;20045;-81
2024/02/06 00:44:34;;;;;;;6.40;4.35;;;;;;;7.91;100.00;100407.88;4869144;29;20057;-80
2024/02/06 00:47:01;;;;;;;8.23;5.38;;;;;;;7.81;100.00;100384.41;4869321;29;20056;-81
2024/02/06 00:49:28;;;;;;;5.90;4.50;;;;;;;7.84;100.00;100406.13;4863015;29;20147;-80
2024/02/06 00:51:54;;;;;;;9.68;4.80;;;;;;;7.82;100.00;100383.56;4851198;29;20052;-81
2024/02/06 00:54:21;;;;;;;5.25;3.90;;;;;;;7.85;100.00;100397.44;4858045;29;20481;-79
2024/02/06 00:56:47;;;;;;;9.65;4.55;;;;;;;7.88;100.00;100399.19;4856506;29;20050;-81
2024/02/06 00:59:15;;;;;;;4.88;4.20;;;;;;;7.88;100.00;100389.63;4855442;29;20117;-80
2024/02/06 01:01:47;;;;;;;7.38;4.97;;;;;;;7.93;100.00;100381.81;4858476;29;20097;-81
2024/02/06 01:04:14;;;;;;;4.68;3.65;;;;;;;7.93;100.00;100381.81;4873293;29;20041;-80
2024/02/06 01:06:43;;;;;;;6.22;3.50;;;;;;;7.93;100.00;100380.03;4863491;29;20051;-79
2024/02/06 01:09:11;;;;;;;6.93;3.75;;;;;;;7.98;100.00;100377.44;4869579;29;20049;-80
2024/02/06 01:11:39;;;;;;;4.10;3.25;;;;;;;7.99;100.00;100379.19;4875838;29;20045;-80
2024/02/06 01:14:05;;;;;;;5.68;3.85;;;;;;;7.99;100.00;100345.28;4871366;29;20498;-81
2024/02/06 01:16:32;;;;;;;5.57;4.03;;;;;;;8.10;100.00;100366.09;4859790;29;20076;-81
2024/02/06 01:19:05;;;;;;;6.97;3.95;;;;;;;8.10;100.00;100356.53;4877169;29;20120;-80
2024/02/06 01:21:31;;;;;;;4.45;3.78;;;;;;;8.07;100.00;100355.66;4867100;29;20056;-81
2024/02/06 01:24:06;;;;;;;5.72;3.85;;;;;;;8.11;100.00;100360.03;4870643;29;20096;-81
2024/02/06 01:26:33;;;;;;;5.80;4.25;;;;;;;8.16;100.00;100345.22;4872058;29;20773;-83
2024/02/06 01:28:59;;;;;;;6.90;3.60;;;;;;;8.16;100.00;100347.84;4877357;29;20048;-80
2024/02/06 01:31:26;;;;;;;11.32;4.15;;;;;;;8.15;100.00;100348.72;4875436;29;20088;-80
2024/02/06 01:33:52;;;;;;;5.45;4.93;;;;;;;8.18;100.00;100342.63;4881676;29;20085;-81
2024/02/06 01:36:19;;;;;;;9.75;5.40;;;;;;;8.18;100.00;100334.78;4868614;29;20061;-81
2024/02/06 01:38:46;;;;;;;11.30;5.25;;;;;;;8.20;100.00;100323.47;4870099;29;20124;-80
2024/02/06 01:41:14;;;;;;;5.82;4.43;;;;;;;8.24;100.00;100343.44;4860668;29;20049;-81
2024/02/06 01:43:41;;;;;;;13.07;5.90;;;;;;;8.23;100.00;100343.47;4888845;29;20045;-82
2024/02/06 01:46:08;;;;;;;7.05;5.20;;;;;;;8.22;100.00;100333.91;4876901;29;20140;-80
2024/02/06 01:48:35;;;;;;;5.30;4.80;;;;;;;8.20;100.00;100328.69;4870303;29;20601;-80
2024/02/06 01:51:04;;;;;;;7.85;4.70;;;;;;;8.13;100.00;100319.16;4863068;29;20128;-81
2024/02/06 01:53:31;;;;;;;8.18;5.47;;;;;;;8.10;100.00;100314.81;4858430;29;20049;-79
2024/02/06 01:55:59;;;;;;;7.53;5.55;;;;;;;8.08;100.00;100310.47;4876531;29;20139;-81
2024/02/06 01:58:26;;;;;;;8.07;5.97;;;;;;;8.08;100.00;100313.09;4859128;29;20068;-80
2024/02/06 02:00:53;;;;;;;8.52;5.05;;;;;;;8.09;100.00;100309.63;4874343;29;20049;-81
2024/02/06 02:03:21;;;;;;;10.63;5.95;;;;;;;8.10;100.00;100300.94;4861033;29;20045;-80
2024/02/06 02:05:47;;;;;;;8.00;6.45;;;;;;;8.13;100.00;100311.34;4870824;29;20144;-79
2024/02/06 02:08:18;;;;;;;6.85;5.65;;;;;;;8.13;100.00;100306.13;4872101;29;20076;-81
2024/02/06 02:10:45;;;;;;;8.02;5.15;;;;;;;8.17;100.00;100297.41;4886705;29;20124;-78
2024/02/06 02:13:12;;;;;;;6.18;5.55;;;;;;;8.18;100.00;100277.44;4874096;29;20689;-80
2024/02/06 02:15:38;;;;;;;16.00;6.05;;;;;;;8.22;100.00;100287.81;4860684;29;20115;-79
2024/02/06 02:18:07;;;;;;;11.15;6.20;;;;;;;8.23;100.00;100300.00;4874110;29;20092;-79
2024/02/06 02:20:34;;;;;;;8.88;6.30;;;;;;;8.24;100.00;100291.31;4871741;29;20455;-80
2024/02/06 02:23:01;;;;;;;15.45;7.47;;;;;;;8.24;100.00;100296.50;4876059;29;20052;-80
2024/02/06 02:25:28;;;;;;;8.65;6.55;;;;;;;8.28;100.00;100289.56;4852369;29;20086;-80
2024/02/06 02:27:54;;;;;;;10.98;6.45;;;;;;;8.29;100.00;100280.81;4868439;29;20045;-78
2024/02/06 02:30:22;;;;;;;6.72;5.97;;;;;;;8.31;100.00;100279.09;4859805;29;20048;-81
2024/02/06 02:32:48;;;;;;;5.75;5.07;;;;;;;8.34;100.00;100275.59;4875581;29;20052;-80
2024/02/06 02:35:17;;;;;;;8.05;5.85;;;;;;;8.35;100.00;100264.28;4859653;29;20148;-81
2024/02/06 02:37:44;;;;;;;7.97;5.65;;;;;;;8.37;100.00;100255.59;4864368;29;20119;-82
2024/02/06 02:40:13;;;;;;;8.23;5.90;;;;;;;8.39;100.00;100258.19;4872997;29;20159;-79
2024/02/06 02:42:40;;;;;;;10.70;5.78;;;;;;;8.44;100.00;100261.63;4867337;29;20417;-79
2024/02/06 02:45:07;;;;;;;9.20;5.57;;;;;;;8.42;100.00;100253.81;4873583;29;20135;-81
2024/02/06 02:47:34;;;;;;;6.00;4.63;;;;;;;8.48;100.00;100247.72;4872488;29;20093;-79
2024/02/06 02:50:02;;;;;;;12.43;5.88;;;;;;;8.48;100.00;100234.66;4859463;29;20045;-81
2024/02/06 02:52:29;;;;;;;9.45;5.32;;;;;;;8.46;100.00;100249.47;4874878;29;20664;-80
2024/02/06 02:55:02;;;;;;;9.38;5.82;;;;;;;8.53;100.00;100245.09;4877229;29;20052;-80
2024/02/06 02:57:29;;;;;;;9.65;5.97;;;;;;;8.50;100.00;100235.53;4870725;29;20506;-80
2024/02/06 02:59:55;;;;;;;7.95;6.65;;;;;;;8.50;100.00;100240.75;4879241;29;20151;-81
2024/02/06 03:02:22;;;;;;;7.20;6.03;;;;;;;8.49;100.00;100223.38;4875819;29;20080;-81
2024/02/06 03:04:49;;;;;;;18.83;5.47;;;;;;;8.52;100.00;100225.09;4867966;29;20077;-81
2024/02/06 03:07:19;;;;;;;7.45;5.18;;;;;;;8.48;100.00;100233.81;4877590;29;20090;-79
2024/02/06 03:09:46;;;;;;;10.07;6.00;;;;;;;8.43;100.00;100231.19;4860838;29;20048;-83
2024/02/06 03:12:13;;;;;;;9.23;5.68;;;;;;;8.41;100.00;100214.72;4868101;29;20049;-81
2024/02/06 03:14:39;;;;;;;10.02;6.55;;;;;;;8.42;100.00;100222.50;4856598;29;20096;-80
2024/02/06 03:17:09;;;;;;;8.68;5.70;;;;;;;8.47;100.00;100217.28;4888068;29;20049;-82
2024/02/06 03:19:36;;;;;;;8.57;5.10;;;;;;;8.50;100.00;100234.66;4856701;29;20421;-79
2024/02/06 03:22:04;;;;;;;6.97;5.28;;;;;;;8.47;100.00;100219.03;4865636;29;20053;-80
2024/02/06 03:24:30;;;;;;;7.43;5.05;;;;;;;8.44;100.00;100223.34;4882986;29;20513;-81
2024/02/06 03:26:57;;;;;;;7.80;4.95;;;;;;;8.47;100.00;100232.06;4870992;29;20105;-81
2024/02/06 03:29:23;;;;;;;6.30;4.80;;;;;;;8.44;100.00;100206.84;4872376;29;20056;-80
2024/02/06 03:31:50;;;;;;;10.45;4.97;;;;;;;8.42;100.00;100219.03;4872451;29;20105;-81
2024/02/06 03:34:18;;;;;;;9.45;5.57;;;;;;;8.45;100.00;100219.03;4858475;29;20537;-80
2024/02/06 03:36:44;;;;;;;6.43;5.55;;;;;;;8.45;100.00;100216.41;4881687;29;20179;-81
2024/02/06 03:39:12;;;;;;;9.98;5.97;;;;;;;8.43;100.00;100213.81;4872854;29;20041;-82
2024/02/06 03:41:39;;;;;;;8.15;5.35;;;;;;;8.38;100.00;100206.88;4850089;29;20059;-80
2024/02/06 03:44:08;;;;;;;9.45;6.13;;;;;;;8.42;100.00;100212.09;4872011;29;20064;-79
2024/02/06 03:46:35;;;;;;;9.63;5.85;;;;;;;8.40;100.00;100210.38;4856582;29;20044;-81
2024/02/06 03:49:02;;;;;;;6.43;5.47;;;;;;;8.37;100.00;100202.53;4873322;29;20113;-80
2024/02/06 03:51:29;;;;;;;8.27;5.20;;;;;;;8.39;100.00;100203.41;4868972;29;20510;-79
2024/02/06 03:53:55;;;;;;;9.73;6.20;;;;;;;8.36;100.00;100203.44;4856772;29;20072;-80
2024/02/06 03:56:29;;;;;;;7.15;5.75;;;;;;;8.35;100.00;100188.66;4850927;29;20517;-81
2024/02/06 03:58:56;;;;;;;;;;;;;;;8.32;100.00;100196.50;4863377;29;20051;-81
2024/02/06 04:01:25;;;;;;;8.38;5.70;;;;;;;8.34;100.00;100198.22;4852952;29;19924;-81
2024/02/06 04:03:56;;;;;;;9.00;5.45;;;;;;;8.30;100.00;100193.91;4874318;29;20044;-79
2024/02/06 04:06:23;;;;;;;7.47;5.30;;;;;;;8.30;100.00;100193.91;4866912;29;20159;-79
2024/02/06 04:08:49;;;;;;;7.53;5.18;;;;;;;8.25;100.00;100190.44;4871100;29;20049;-80
2024/02/06 04:11:20;;;;;;;9.10;5.70;;;;;;;8.27;100.00;100183.50;4871618;29;20104;-83
2024/02/06 04:13:53;;;;;;;6.93;6.07;;;;;;;8.30;100.00;100193.03;4873635;29;20056;-81
2024/02/06 04:16:22;;;;;;;11.77;6.38;;;;;;;8.27;100.00;100186.09;4852268;29;20148;-82
2024/02/06 04:18:52;;;;;;;9.35;5.22;;;;;;;8.27;100.00;100202.59;4870935;29;20049;-80
2024/02/06 04:21:26;;;;;;;8.63;5.82;;;;;;;8.34;100.00;100203.44;4852746;29;20414;-82
2024/02/06 04:23:56;;;;;;;9.10;5.65;;;;;;;8.30;100.00;100201.72;4859422;29;20084;-81
2024/02/06 04:26:27;;;;;;;6.82;5.40;;;;;;;8.33;100.00;100187.78;4858514;29;20101;-79
2024/02/06 04:28:54;;;;;;;9.73;6.00;;;;;;;8.30;100.00;100196.50;4873685;29;20151;-82
2024/02/06 04:31:26;;;;;;;7.22;5.70;;;;;;;8.30;100.00;100193.91;4855879;29;20048;-83
2024/02/06 04:33:53;;;;;;;7.00;5.70;;;;;;;8.31;100.00;100176.53;4851418;29;20081;-81
2024/02/06 04:36:20;;;;;;;8.27;5.93;;;;;;;8.36;100.00;100179.97;4872742;29;20079;-80
2024/02/06 04:38:49;;;;;;;10.27;6.15;;;;;;;8.38;100.00;100183.41;4853400;29;20579;-80
2024/02/06 04:41:16;;;;;;;6.85;6.15;;;;;;;8.33;100.00;100167.81;4870675;29;20106;-80
2024/02/06 04:43:42;;;;;;;9.45;6.38;;;;;;;8.39;100.00;100175.56;4855692;29;20056;-80
2024/02/06 04:46:09;;;;;;;11.73;5.60;;;;;;;8.39;100.00;100159.06;4857004;29;20106;-79
2024/02/06 04:48:38;;;;;;;7.25;5.43;;;;;;;8.39;100.00;100164.28;4871194;29;20056;-80
2024/02/06 04:51:05;;;;;;;8.25;5.15;;;;;;;8.38;100.00;100162.53;4870251;29;20049;-80
2024/02/06 04:53:32;;;;;;;8.00;5.35;;;;;;;8.39;100.00;100172.97;4856655;29;20055;-80
2024/02/06 04:56:00;;;;;;;7.75;4.80;;;;;;;8.42;100.00;100157.31;4872446;29;20046;-80
2024/02/06 04:58:27;;;;;;;6.93;5.50;;;;;;;8.42;100.00;100159.91;4853793;29;20049;-82
2024/02/06 05:00:53;;;;;;;8.23;5.32;;;;;;;8.43;100.00;100153.81;4871897;29;20136;-80
2024/02/06 05:03:22;;;;;;;6.40;5.00;;;;;;;8.43;100.00;100152.94;4874755;29;20300;-80
2024/02/06 05:05:49;;;;;;;6.85;4.93;;;;;;;8.47;100.00;100164.25;4887015;29;20501;-81
2024/02/06 05:08:28;;;;;;;5.43;4.93;;;;;;;8.41;100.00;100147.75;4872095;29;20402;-80
2024/02/06 05:10:57;;;;;;;8.43;4.65;;;;;;;8.39;100.00;100153.84;4860106;29;20053;-79
2024/02/06 05:13:23;;;;;;;11.00;5.32;;;;;;;8.42;100.00;100139.06;4863308;29;20045;-82
2024/02/06 05:15:50;;;;;;;6.00;5.10;;;;;;;8.40;100.00;100153.84;4857874;29;20080;-81
2024/02/06 05:18:16;;;;;;;7.10;5.03;;;;;;;8.40;100.00;100140.78;4891247;29;20084;-80
2024/02/06 05:20:46;;;;;;;11.43;6.03;;;;;;;8.40;100.00;100138.19;4874798;29;20044;-81
2024/02/06 05:23:14;;;;;;;8.68;6.00;;;;;;;8.42;100.00;100127.72;4878452;29;20135;-81
2024/02/06 05:25:43;;;;;;;8.68;6.65;;;;;;;8.45;100.00;100135.56;4873714;29;20043;-83
2024/02/06 05:28:10;;;;;;;7.10;4.80;;;;;;;8.42;100.00;100110.34;4859721;29;20053;-80
2024/02/06 05:30:40;;;;;;;6.43;4.75;;;;;;;8.44;100.00;100123.38;4870457;29;20072;-81
2024/02/06 05:33:15;;;;;;;6.25;5.03;;;;;;;8.49;100.00;100129.47;4884733;29;20045;-81
2024/02/06 05:35:45;;;;;;;7.35;4.63;;;;;;;8.51;100.00;100126.81;4858729;29;20056;-81
2024/02/06 05:40:56;;;;;;;9.70;5.28;;;;;;;8.54;100.00;100112.03;4880575;29;20050;-82
2024/02/06 05:43:26;;;;;;;6.32;5.05;;;;;;;8.59;100.00;100110.22;4859682;29;20053;-83
2024/02/06 05:45:52;;;;;;;8.98;6.97;;;;;;;8.56;100.00;100110.25;4888684;29;20087;-80
2024/02/06 05:48:24;;;;;;;6.30;5.47;;;;;;;8.54;100.00;100109.41;4860415;29;20059;-80
2024/02/06 05:50:51;;;;;;;8.98;5.95;;;;;;;8.59;100.00;100110.22;4853308;29;20554;-80
2024/02/06 05:53:20;;;;;;;5.60;5.10;;;;;;;8.53;100.00;100089.41;4867095;29;20080;-82
2024/02/06 05:55:50;;;;;;;9.48;5.72;;;;;;;8.54;100.00;100098.09;4852572;29;20069;-81
2024/02/06 05:58:20;;;;;;;9.63;6.32;;;;;;;8.57;100.00;100098.09;4872330;29;20045;-82
2024/02/06 06:00:50;;;;;;;8.88;5.72;;;;;;;8.57;100.00;100098.09;4847825;29;20673;-80
2024/02/06 06:03:19;;;;;;;8.70;6.22;;;;;;;8.56;100.00;100105.03;4868727;29;20498;-81
2024/02/06 06:05:48;;;;;;;5.65;5.18;;;;;;;8.58;100.00;100100.66;4865641;29;20057;-81
2024/02/06 06:08:19;;;;;;;8.48;5.05;;;;;;;8.60;100.00;100105.88;4884933;29;20584;-82
2024/02/06 06:10:45;;;;;;;6.80;6.00;;;;;;;8.62;100.00;100101.50;4879055;29;20052;-80
2024/02/06 06:13:12;;;;;;;8.13;5.88;;;;;;;8.64;100.00;100093.66;4856303;29;20048;-82
2024/02/06 06:15:39;;;;;;;9.10;5.82;;;;;;;8.64;100.00;100086.69;4866530;29;20061;-82
2024/02/06 06:18:07;;;;;;;7.43;5.13;;;;;;;8.67;100.00;100098.84;4856232;29;20801;-83
2024/02/06 06:20:34;;;;;;;13.40;5.65;;;;;;;8.69;100.00;100094.47;4862796;29;20572;-83
2024/02/06 06:23:01;;;;;;;7.75;4.80;;;;;;;8.67;100.00;100084.06;4866612;29;20501;-82
2024/02/06 06:25:27;;;;;;;10.98;5.70;;;;;;;8.71;100.00;100095.34;4858123;29;20759;-82
2024/02/06 06:27:54;;;;;;;7.32;4.55;;;;;;;8.74;100.00;100097.91;4883094;29;20553;-81
2024/02/06 06:30:20;;;;;;;8.23;4.80;;;;;;;8.76;100.00;100085.69;4870719;29;20056;-81
2024/02/06 06:32:47;;;;;;;7.80;4.82;;;;;;;8.77;100.00;100090.91;4867948;29;20097;-83
2024/02/06 06:35:13;;;;;;;9.25;4.78;;;;;;;8.82;100.00;100079.56;4887034;29;20053;-82
2024/02/06 06:37:40;;;;;;;11.02;5.60;;;;;;;8.77;100.00;100080.47;4854262;29;20061;-82
2024/02/06 06:40:08;;;;;;;8.35;4.65;;;;;;;8.77;100.00;100087.44;4856643;29;20057;-83
2024/02/06 06:42:35;;;;;;;8.27;5.70;;;;;;;8.77;100.00;100092.66;4855051;29;20092;-84
2024/02/06 06:45:02;;;;;;;10.30;5.30;;;;;;;8.71;100.00;100080.53;4869281;29;20045;-80
2024/02/06 06:47:31;;;;;;;10.63;5.10;;;;;;;8.70;100.00;100089.25;4884158;29;20052;-81
2024/02/06 06:49:59;;;;;;;6.55;5.05;;;;;;;8.64;100.00;100084.09;4886532;29;20087;-81
2024/02/06 06:52:29;;;;;;;5.57;4.53;;;;;;;8.63;100.00;100100.63;4855594;29;20105;-81
2024/02/06 06:54:57;;;;;;;9.07;5.72;;;;;;;8.61;100.00;100092.81;4855806;29;20052;-82
2024/02/06 06:57:26;;;;;;;8.25;4.72;;;;;;;8.59;100.00;100091.97;4855500;29;20056;-81
2024/02/06 06:59:52;;;;;;;8.32;5.93;;;;;;;8.58;100.00;100087.63;4868912;29;20053;-82
2024/02/06 07:02:19;;;;;;;5.88;4.90;;;;;;;8.59;100.00;100086.75;4858436;29;20140;-82
2024/02/06 07:04:46;;;;;;;6.32;4.57;;;;;;;8.58;100.00;100084.16;4887567;29;21014;-81
2024/02/06 07:07:13;;;;;;;7.32;4.65;;;;;;;8.51;100.00;100075.50;4857683;29;20518;-83
2024/02/06 07:09:40;;;;;;;8.32;4.50;;;;;;;8.49;100.00;100079.03;4873551;29;20057;-80
2024/02/06 07:12:09;;;;;;;5.32;4.35;;;;;;;8.51;100.00;100087.69;4853485;29;20446;-83
2024/02/06 07:14:37;;;;;;;4.60;4.18;;;;;;;8.50;100.00;100085.97;4857348;29;20065;-82
2024/02/06 07:17:09;;;;;;;5.45;4.90;;;;;;;8.51;100.00;100083.34;4859792;29;20076;-81
2024/02/06 07:19:36;;;;;;;4.72;4.25;;;;;;;8.54;100.00;100092.88;4859441;29;20053;-83
2024/02/06 07:22:02;;;;;;;5.78;4.68;;;;;;;8.52;100.00;100085.06;4864953;29;20060;-80
2024/02/06 07:24:29;;;;;;;5.32;4.82;;;;;;;8.56;100.00;100078.94;4872658;29;20052;-81
2024/02/06 07:27:02;;;;;;;5.72;4.40;;;;;;;8.56;100.00;100070.25;4854401;29;20174;-83
2024/02/06 07:29:29;;;;;;;5.00;4.45;;;;;;;8.61;100.00;100077.16;4858852;29;20057;-83
2024/02/06 07:31:56;;;;;;;4.30;3.92;;;;;;;8.58;100.00;100077.19;4868116;29;20053;-82
2024/02/06 07:34:22;;;;;;;8.07;4.40;;;;;;;8.56;100.00;100072.88;4869501;29;20064;-81
2024/02/06 07:36:49;;;;;;;7.53;4.45;;;;;;;8.59;100.00;100073.72;4884545;29;20077;-82
2024/02/06 07:39:16;;;;;;;5.55;4.50;;;;;;;8.56;100.00;100072.88;4877315;29;20076;-83
2024/02/06 07:41:47;;;;;;;4.53;3.83;;;;;;;8.55;100.00;100072.00;4855173;29;20097;-81
2024/02/06 07:44:14;;;;;;;7.22;4.30;;;;;;;8.57;100.00;100067.63;4888664;29;20053;-82
2024/02/06 07:46:40;;;;;;;6.30;4.40;;;;;;;8.60;100.00;100082.38;4858164;29;20493;-82
2024/02/06 07:49:08;;;;;;;7.93;5.38;;;;;;;8.55;100.00;100065.91;4873004;29;20049;-82
2024/02/06 07:51:35;;;;;;;5.78;4.75;;;;;;;8.59;100.00;100073.72;4867596;29;20454;-83
2024/02/06 07:54:03;;;;;;;7.40;4.50;;;;;;;8.63;100.00;100063.22;4869503;29;20379;-82
2024/02/06 07:56:34;;;;;;;5.85;4.78;;;;;;;8.60;100.00;100058.91;4867128;29;20076;-83
2024/02/06 07:59:02;;;;;;;4.63;4.22;;;;;;;8.65;100.00;100064.09;4866507;29;20045;-83
2024/02/06 08:01:29;;;;;;;5.78;4.53;;;;;;;8.55;100.00;100058.97;4835402;29;20072;-84
2024/02/06 08:03:56;;;;;;;6.40;4.70;;;;;;;8.57;100.00;100054.59;4869702;29;20053;-81
2024/02/06 08:06:23;;;;;;;4.10;3.70;;;;;;;8.56;100.00;100050.25;4855386;29;20090;-84
2024/02/06 08:08:50;;;;;;;6.15;4.40;;;;;;;8.58;100.00;100048.50;4873449;29;20049;-81
2024/02/06 08:11:17;;;;;;;6.93;5.13;;;;;;;8.61;100.00;100060.63;4873137;29;20057;-80
2024/02/06 08:13:45;;;;;;;5.25;4.00;;;;;;;8.56;100.00;100045.03;4859567;29;20404;-81
2024/02/06 08:16:14;;;;;;;6.15;3.80;;;;;;;8.55;100.00;100037.22;4861685;29;20552;-82
2024/02/06 08:18:41;;;;;;;3.92;3.55;;;;;;;8.62;100.00;100044.13;4895784;29;20050;-81
2024/02/06 08:21:08;;;;;;;4.47;3.83;;;;;;;8.63;100.00;100039.75;4857742;29;20553;-81
2024/02/06 08:23:34;;;;;;;3.30;3.03;;;;;;;8.64;100.00;100044.94;4871307;29;20417;-82
2024/02/06 08:26:01;;;;;;;3.97;3.63;;;;;;;8.69;100.00;100027.50;4876317;29;20053;-81
2024/02/06 08:28:30;;;;;;;3.65;3.35;;;;;;;8.69;100.00;100044.91;4877284;29;20049;-81
2024/02/06 08:30:59;;;;;;;5.40;3.47;;;;;;;8.67;100.00;100044.94;4875838;29;20471;-81
2024/02/06 08:33:32;;;;;;;5.18;3.83;;;;;;;8.74;100.00;100041.34;4860751;29;20057;-80
2024/02/06 08:36:01;;;;;;;3.97;3.58;;;;;;;8.61;100.00;100021.50;4890397;29;20122;-81
2024/02/06 08:38:30;;;;;;;4.13;3.72;;;;;;;8.63;100.00;100042.34;4859657;29;20057;-81
2024/02/06 08:41:00;;;;;;;4.10;3.72;;;;;;;8.65;100.00;100038.00;4857933;29;20053;-81
2024/02/06 08:43:27;;;;;;;4.90;4.00;;;;;;;8.65;100.00;100027.56;4883453;29;20053;-81
2024/02/06 08:45:54;;;;;;;5.50;4.15;;;;;;;8.61;100.00;100027.56;4889089;29;20194;-82
2024/02/06 08:48:21;;;;;;;4.07;3.78;;;;;;;8.65;100.00;100030.16;4877689;29;20577;-85
2024/02/06 08:50:49;;;;;;;9.05;3.85;;;;;;;8.68;100.00;100043.16;4873314;29;20080;-82
2024/02/06 08:53:17;;;;;;;4.38;3.63;;;;;;;8.70;100.00;100037.06;4871713;29;20429;-82
2024/02/06 08:55:44;;;;;;;3.90;3.60;;;;;;;8.68;100.00;100024.91;4875814;29;20149;-84
2024/02/06 08:58:11;;;;;;;4.18;3.38;;;;;;;8.72;100.00;100023.97;4878950;29;20055;-82
2024/02/06 09:00:38;;;;;;;6.47;3.60;;;;;;;8.78;100.00;100023.91;4873125;29;20048;-82
2024/02/06 09:03:22;;;;;;;8.27;4.05;;;;;;;8.75;100.00;100013.53;4875250;29;20045;-81
2024/02/06 09:05:50;;;;;;;5.25;3.40;;;;;;;8.82;100.00;100024.75;4874694;29;20041;-82
2024/02/06 09:08:19;;;;;;;3.55;3.25;;;;;;;8.83;100.00;100035.16;4858737;29;20052;-84
2024/02/06 09:10:46;;;;;;;5.72;3.80;;;;;;;8.76;100.00;100031.78;4853673;29;20269;-81
2024/02/06 09:13:13;;;;;;;3.75;3.17;;;;;;;8.78;100.00;100019.56;4881962;29;20787;-80
2024/02/06 09:15:45;;;;;;;4.35;3.95;;;;;;;8.74;100.00;100017.88;4870158;29;20513;-81
2024/02/06 09:18:12;;;;;;;7.40;5.70;;;;;;;8.77;100.00;100035.22;4860457;29;20049;-80
2024/02/06 09:20:47;;;;;;;6.13;5.10;;;;;;;8.78;100.00;100019.56;4869763;29;20723;-81
2024/02/06 09:23:14;;;;;;;9.07;4.95;;;;;;;8.80;100.00;100021.28;4870080;29;20498;-82
2024/02/06 09:25:43;;;;;;;7.68;4.75;;;;;;;8.88;100.00;100011.66;4859599;29;20108;-82
2024/02/06 09:28:10;;;;;;;7.35;4.78;;;;;;;8.92;100.00;100002.88;4875007;29;20109;-81
2024/02/06 09:30:40;;;;;;;4.78;4.18;;;;;;;8.94;100.00;100007.19;4869853;29;20053;-82
2024/02/06 09:33:15;;;;;;;6.85;4.55;;;;;;;9.00;100.00;99995.81;4874331;29;20113;-81
2024/02/06 09:35:45;;;;;;;6.97;4.30;;;;;;;9.00;100.00;100008.84;4886686;29;20033;-82
2024/02/06 09:38:12;;;;;;;7.07;4.53;;;;;;;9.01;100.00;100013.22;4879314;29;20048;-82
2024/02/06 09:40:39;;;;;;;5.80;4.53;;;;;;;9.07;100.00;100015.75;4860390;29;20056;-82
2024/02/06 09:43:08;;;;;;;7.15;4.90;;;;;;;9.04;100.00;99997.50;4876751;29;20551;-81
2024/02/06 09:45:36;;;;;;;7.57;4.32;;;;;;;9.05;100.00;99998.38;4862822;29;20068;-82
2024/02/06 09:48:04;;;;;;;4.78;4.28;;;;;;;9.08;100.00;100000.94;4863242;29;20084;-82
2024/02/06 09:50:33;;;;;;;8.57;4.97;;;;;;;9.12;100.00;99991.31;4869271;29;20038;-80
2024/02/06 09:53:04;;;;;;;7.57;4.50;;;;;;;9.23;100.00;100005.06;4863524;29;20148;-81
2024/02/06 09:55:32;;;;;;;4.57;4.07;;;;;;;9.25;100.00;99993.72;4862668;29;20469;-82
2024/02/06 09:58:00;;;;;;;9.68;3.78;;;;;;;9.31;100.00;99998.00;4858536;29;20097;-81
2024/02/06 10:00:28;;;;;;;6.78;5.05;;;;;;;9.34;100.00;99989.25;4887132;29;20060;-83
2024/02/06 10:02:57;;;;;;;4.60;4.20;;;;;;;9.35;100.00;99983.16;4877050;29;20128;-79
2024/02/06 10:05:32;;;;;;;6.10;4.00;;;;;;;9.38;100.00;99997.00;4858639;29;20524;-81
2024/02/06 10:08:00;;;;;;;5.53;4.15;;;;;;;9.41;100.00;99989.16;4862753;29;20083;-81
2024/02/06 10:10:29;;;;;;;5.40;3.63;;;;;;;9.51;100.00;99981.16;4855854;29;20053;-82
2024/02/06 10:12:58;;;;;;;7.38;4.22;;;;;;;9.48;100.00;99989.91;4878154;29;20072;-81
2024/02/06 10:15:25;;;;;;;7.07;4.82;;;;;;;9.55;100.00;99998.53;4868701;29;20049;-81
2024/02/06 10:17:52;;;;;;;9.95;4.53;;;;;;;9.55;100.00;99990.69;4890429;29;20085;-81
2024/02/06 10:20:19;;;;;;;7.03;4.22;;;;;;;9.59;100.00;100003.69;4859193;29;20061;-82
2024/02/06 10:22:47;;;;;;;5.30;4.53;;;;;;;9.59;100.00;99982.78;4850746;29;20100;-82
2024/02/06 10:25:15;;;;;;;5.85;4.47;;;;;;;9.57;100.00;99991.53;4861844;29;20045;-82
2024/02/06 10:27:42;;;;;;;5.65;4.68;;;;;;;9.64;100.00;99990.53;4878653;29;20045;-82
2024/02/06 10:30:10;;;;;;;5.95;4.03;;;;;;;9.70;100.00;99981.72;4872786;29;20044;-82
2024/02/06 10:32:39;;;;;;;11.15;4.78;;;;;;;9.67;100.00;99987.88;4884268;29;20056;-82
2024/02/06 10:35:10;;;;;;;6.65;4.32;;;;;;;9.66;100.00;99980.06;4859729;29;20052;-82
2024/02/06 10:37:40;;;;;;;4.70;4.30;;;;;;;9.62;100.00;99976.66;4858607;29;20065;-81
2024/02/06 10:40:11;;;;;;;8.18;4.70;;;;;;;9.60;100.00;99979.25;4854365;29;20052;-84
2024/02/06 10:42:40;;;;;;;7.25;4.38;;;;;;;9.56;100.00;99966.28;4873227;29;20041;-83
2024/02/06 10:45:08;;;;;;;6.32;4.07;;;;;;;9.57;100.00;99976.72;4873284;29;20076;-82
2024/02/06 10:47:41;;;;;;;3.95;3.67;;;;;;;9.62;100.00;99976.66;4873744;29;20386;-83
2024/02/06 10:50:12;;;;;;;4.88;3.70;;;;;;;9.64;100.00;99963.56;4868313;29;20050;-83
2024/02/06 10:52:41;;;;;;;5.40;3.70;;;;;;;9.59;100.00;99977.56;4873103;29;20116;-84
2024/02/06 10:55:08;;;;;;;8.25;4.05;;;;;;;9.60;100.00;99960.97;4873571;29;20463;-81
2024/02/06 10:57:41;;;;;;;4.57;4.18;;;;;;;9.59;100.00;99953.16;4858975;29;20041;-81
2024/02/06 11:00:15;;;;;;;10.88;4.72;;;;;;;9.64;100.00;99959.19;4875066;29;20135;-80
2024/02/06 11:02:43;;;;;;;4.32;3.90;;;;;;;9.64;100.00;99934.81;4859338;29;20521;-80
2024/02/06 11:05:26;;;;;;;5.50;3.92;;;;;;;9.66;100.00;99948.69;4857634;29;20041;-82
2024/02/06 11:08:03;;;;;;;3.92;3.53;;;;;;;9.71;100.00;99950.38;4870314;29;20057;-81
2024/02/06 11:10:46;;;;;;;5.90;3.80;;;;;;;9.67;100.00;99943.44;4872736;29;20423;-82
2024/02/06 11:13:39;;;;;;;9.57;4.82;;;;;;;9.64;100.00;99935.66;4883371;29;20048;-82
2024/02/06 11:16:09;;;;;;;10.45;4.55;;;;;;;9.57;100.00;99939.28;4872404;29;20046;-83
2024/02/06 11:19:03;;;;;;;5.30;4.38;;;;;;;9.58;100.00;99927.91;4856834;29;20055;-84
2024/02/06 11:21:39;;;;;;;7.38;4.15;;;;;;;9.55;100.00;99925.38;4873185;29;20072;-82
2024/02/06 11:24:08;;;;;;;8.10;3.83;;;;;;;9.59;100.00;99940.97;4875387;29;20061;-82
2024/02/06 11:26:39;;;;;;;5.57;4.60;;;;;;;9.58;100.00;99941.84;4876354;29;20125;-82
2024/02/06 11:29:09;;;;;;;6.78;4.90;;;;;;;9.56;100.00;99938.41;4862347;29;20056;-82
2024/02/06 11:31:38;;;;;;;7.45;4.13;;;;;;;9.58;100.00;99936.63;4870471;29;20049;-84
2024/02/06 11:34:19;;;;;;;6.50;4.85;;;;;;;9.58;100.00;99926.19;4865993;29;20049;-80